Airfield :
LOGIN :

Register | Disclaimer

   EN    FR    IT 

 










Legend :    VFR   Marginal VFR   IFR   Intensive IFR   Very Intensive IFR
Visi :
Ceiling :
>= 8 km
>= 3000ft
5 to 8 km
1000 to 3000 ft
1500m to 5 km
500 to 1000 ft
800 to 1500m
200 to 500 ft
< 800m
< 200 ft
Symbols :   Thunderstorms  Fog  Heavy snow  Heavy precipitations  Wind > 20 kt
SIGMETs :     Misc.  Thunderstorms  Icing  Turbulence  Mountain Waves  Volcanic Ashes






- Airport Elevation : 143 ft


LGEL - Elefsis

CURRENT METAR :
  • 190020Z AUTO 35006KT 280V030 //// // ////// 33/12 Q1009 RE//

EXPIRED METARs :
  • 182350Z AUTO 29004KT 270V040 //// // ////// 33/11 Q1009 RE//
  • 182320Z AUTO VRB03KT //// // ////// 32/11 Q1009 RE//
  • 182250Z AUTO VRB01KT //// // ////// 32/11 Q1009 RE//
  • 182220Z AUTO VRB02KT //// // ////// 33/11 Q1010 RE//
  • 182150Z AUTO VRB03KT //// // ////// 33/11 Q1010 RE//
  • 182120Z AUTO 33004KT 270V360 //// // ////// 34/11 Q1010 RE//
  • 182050Z VRB03KT CAVOK 34/11 Q1010
  • 182020Z VRB03KT CAVOK 35/11 Q1010
  • 181950Z VRB03KT CAVOK 34/11 Q1010

TAF TAF LGEL
Valid from the 19 at 00:00 until the 20 at 00:00 UTC


182300Z 1900/1924 35010KT CAVOK
BECMG 1904/1906 35012G25KT



MET'MAP, your aeronautical weather chart ! - Copyright ORBIFLY December 2007 - Disclaimer

ORBIFLY MET'MAP TEAM :

Programming & Development : Alexandra Zaïnal
Original concept : Baudouin d'Aumeries
Technical & hardware support : Manuel Goepfert
Assistance : Marc-Olivier Méhu




SOURCES & CREDITS :

   NOAA